Time;durP1;ratioP1;P1;durP2;ratioP2;P2;SDS_P1;SDS_P2;PMS_P1;PMS_P2;Temp;Humidity;BMP_temperature;BMP_pressure;BME280_temperature;BME280_humidity;BME280_pressure;Samples;Min_cycle;Max_cycle;Signal;HPM_P1;HPM_P2
2023/09/11 00:02:02;;;;;;;13.43;12.23;;;;;;;21.63;100.00;101217.50;4990901;28;20105;-68
2023/09/11 00:04:28;;;;;;;13.20;11.73;;;;;;;21.62;100.00;101212.22;4991577;28;20034;-67
2023/09/11 00:06:53;;;;;;;14.85;11.10;;;;;;;21.59;100.00;101214.00;4991090;28;20022;-67
2023/09/11 00:09:18;;;;;;;17.45;12.07;;;;;;;21.56;100.00;101203.50;4991023;28;20026;-68
2023/09/11 00:11:43;;;;;;;14.32;11.88;;;;;;;21.52;100.00;101201.75;4990699;28;20467;-68
2023/09/11 00:14:09;;;;;;;13.30;11.98;;;;;;;21.49;100.00;101204.44;4990498;28;20084;-68
2023/09/11 00:16:34;;;;;;;13.52;12.20;;;;;;;21.43;100.00;101196.56;4990736;28;20028;-68
2023/09/11 00:18:59;;;;;;;15.32;12.27;;;;;;;21.39;100.00;101200.13;4990878;28;20022;-67
2023/09/11 00:21:25;;;;;;;14.88;11.98;;;;;;;21.35;100.00;101196.63;4990901;28;20109;-68
2023/09/11 00:23:50;;;;;;;13.25;12.00;;;;;;;21.30;100.00;101196.66;4991160;28;20036;-69
2023/09/11 00:26:15;;;;;;;14.38;12.52;;;;;;;21.28;100.00;101195.78;4989873;28;20082;-66
2023/09/11 00:28:41;;;;;;;14.93;13.23;;;;;;;21.25;100.00;101193.19;4990645;28;20587;-67
2023/09/11 00:31:06;;;;;;;15.05;12.77;;;;;;;21.26;100.00;101197.56;4990496;28;20038;-68
2023/09/11 00:33:31;;;;;;;13.15;11.85;;;;;;;21.28;100.00;101197.56;4990760;28;20026;-68
2023/09/11 00:35:56;;;;;;;13.98;12.43;;;;;;;21.27;100.00;101194.03;4989820;28;20438;-66
2023/09/11 00:38:22;;;;;;;14.40;13.07;;;;;;;21.26;100.00;101189.66;4990280;28;20032;-66
2023/09/11 00:40:47;;;;;;;13.43;12.07;;;;;;;21.25;100.00;101193.19;4990015;28;20489;-68
2023/09/11 00:43:12;;;;;;;14.80;12.02;;;;;;;21.27;100.00;101199.31;4990134;28;20022;-68
2023/09/11 00:45:38;;;;;;;13.88;12.50;;;;;;;21.23;100.00;101190.56;4989978;28;20167;-67
2023/09/11 00:48:04;;;;;;;15.10;13.50;;;;;;;21.23;100.00;101189.66;4990413;28;20040;-67
2023/09/11 00:50:31;;;;;;;14.00;12.63;;;;;;;21.21;100.00;101186.16;4990405;28;20486;-68
2023/09/11 00:52:57;;;;;;;14.45;12.98;;;;;;;21.20;100.00;101181.81;4989521;28;20030;-64
2023/09/11 00:55:23;;;;;;;14.40;12.93;;;;;;;21.20;100.00;101190.59;4989912;28;20081;-68
2023/09/11 00:57:49;;;;;;;14.73;13.05;;;;;;;21.19;100.00;101187.97;4990423;28;20030;-67
2023/09/11 01:00:14;;;;;;;14.88;13.35;;;;;;;21.17;100.00;101189.72;4989816;28;20352;-68
2023/09/11 01:02:40;;;;;;;15.35;13.18;;;;;;;21.16;100.00;101185.34;4989415;28;20463;-68
2023/09/11 01:05:07;;;;;;;15.50;14.02;;;;;;;21.14;100.00;101184.50;4990124;28;20026;-69
2023/09/11 01:07:33;;;;;;;14.68;13.15;;;;;;;21.14;100.00;101184.50;4990393;28;20030;-69
2023/09/11 01:09:59;;;;;;;14.68;13.05;;;;;;;21.13;100.00;101177.47;4989884;28;20370;-67
2023/09/11 01:12:25;;;;;;;15.38;13.70;;;;;;;21.13;100.00;101180.09;4989958;28;20026;-68
2023/09/11 01:14:50;;;;;;;13.77;12.30;;;;;;;21.12;100.00;101176.56;4988883;28;20022;-68
2023/09/11 01:17:58;;;;;;;14.68;13.27;;;;;;;21.10;100.00;101179.22;4990050;28;20041;-68
2023/09/11 01:20:32;;;;;;;16.00;13.55;;;;;;;21.09;100.00;101169.59;4971502;28;20121;-68
2023/09/11 01:23:22;;;;;;;14.05;12.65;;;;;;;21.09;100.00;101184.50;4989183;28;20053;-64
2023/09/11 01:26:16;;;;;;;15.35;13.80;;;;;;;21.08;100.00;101186.25;4989481;28;20578;-67
2023/09/11 01:29:02;;;;;;;14.48;12.73;;;;;;;21.06;100.00;101185.41;4989117;28;20228;-67
2023/09/11 01:31:31;;;;;;;14.32;12.85;;;;;;;21.04;100.00;101184.53;4974065;28;20042;-68
2023/09/11 01:34:01;;;;;;;14.57;13.05;;;;;;;21.02;100.00;101181.03;4989163;28;20061;-66
2023/09/11 01:36:26;;;;;;;14.32;12.85;;;;;;;21.00;100.00;101182.81;4988806;28;20030;-66
2023/09/11 01:38:51;;;;;;;14.57;13.18;;;;;;;20.95;100.00;101177.56;4989043;28;20042;-68
2023/09/11 01:41:17;;;;;;;13.57;12.20;;;;;;;20.92;100.00;101179.31;4989238;28;20455;-66
2023/09/11 01:43:44;;;;;;;14.27;12.80;;;;;;;20.88;100.00;101171.41;4989456;28;20031;-68
2023/09/11 01:46:11;;;;;;;15.50;13.20;;;;;;;20.84;100.00;101174.97;4988606;28;20031;-68
2023/09/11 01:48:38;;;;;;;13.70;12.30;;;;;;;20.82;100.00;101173.22;4989022;28;20558;-68
2023/09/11 01:51:05;;;;;;;15.45;12.23;;;;;;;20.80;100.00;101169.72;4989161;28;20089;-69
2023/09/11 01:53:31;;;;;;;14.73;13.15;;;;;;;20.76;100.00;101174.13;4989022;28;20039;-68
2023/09/11 01:55:58;;;;;;;14.70;12.48;;;;;;;20.73;100.00;101169.75;4989248;28;20022;-69
2023/09/11 01:58:24;;;;;;;13.98;12.43;;;;;;;20.70;100.00;101174.16;4989345;28;20026;-68
2023/09/11 02:00:49;;;;;;;14.23;12.98;;;;;;;20.66;100.00;101173.31;4989244;28;20033;-66
2023/09/11 02:03:16;;;;;;;14.38;12.98;;;;;;;20.62;100.00;101164.56;4988865;28;20030;-68
2023/09/11 02:05:41;;;;;;;13.82;12.60;;;;;;;20.60;100.00;101168.06;4988579;28;20157;-67
2023/09/11 02:08:06;;;;;;;14.52;13.10;;;;;;;20.57;100.00;101163.69;4988718;28;20120;-68
2023/09/11 02:10:32;;;;;;;14.45;13.15;;;;;;;20.54;100.00;101163.72;4989104;28;20126;-65
2023/09/11 02:12:57;;;;;;;15.35;13.50;;;;;;;20.53;100.00;101164.59;4988271;28;20431;-68
2023/09/11 02:15:22;;;;;;;14.38;13.07;;;;;;;20.51;100.00;101159.34;4987995;28;20030;-68
2023/09/11 02:17:47;;;;;;;14.52;13.32;;;;;;;20.49;100.00;101162.88;4988547;28;20030;-68
2023/09/11 02:20:13;;;;;;;13.27;12.07;;;;;;;20.46;100.00;101162.88;4989067;28;20050;-67
2023/09/11 02:22:38;;;;;;;13.30;12.00;;;;;;;20.43;100.00;101155.00;4988571;28;20026;-67
2023/09/11 02:25:04;;;;;;;13.25;11.95;;;;;;;20.40;100.00;101150.59;4988360;28;20022;-68
2023/09/11 02:27:29;;;;;;;13.85;12.55;;;;;;;20.35;100.00;101148.00;4988105;28;20050;-68
2023/09/11 02:29:54;;;;;;;13.60;12.50;;;;;;;20.32;100.00;101145.38;4988994;28;20057;-67
2023/09/11 02:32:19;;;;;;;13.10;11.90;;;;;;;20.28;100.00;101147.16;4988175;28;20117;-66
2023/09/11 02:34:45;;;;;;;14.48;12.65;;;;;;;20.23;100.00;101140.16;4988274;28;20505;-67
2023/09/11 02:37:11;;;;;;;14.05;12.68;;;;;;;20.20;100.00;101138.41;4987772;28;20076;-68
2023/09/11 02:39:38;;;;;;;14.63;13.32;;;;;;;20.15;100.00;101146.31;4988552;28;20498;-68
2023/09/11 02:42:04;;;;;;;13.95;12.55;;;;;;;20.13;100.00;101141.97;4988248;28;20037;-68
2023/09/11 02:44:29;;;;;;;14.73;13.30;;;;;;;20.10;100.00;101142.84;4988125;28;20468;-68
2023/09/11 02:46:54;;;;;;;16.00;12.40;;;;;;;20.07;100.00;101142.84;4988372;28;20045;-68
2023/09/11 02:49:20;;;;;;;15.05;12.48;;;;;;;20.06;100.00;101141.06;4988197;28;20496;-68
2023/09/11 02:51:45;;;;;;;15.90;12.57;;;;;;;20.03;100.00;101143.69;4987749;28;20093;-68
2023/09/11 02:54:10;;;;;;;13.82;12.52;;;;;;;20.00;100.00;101141.09;4988062;28;20512;-64
2023/09/11 02:56:37;;;;;;;15.95;13.43;;;;;;;19.98;100.00;101142.84;4987401;28;20023;-67
2023/09/11 02:59:03;;;;;;;15.60;13.45;;;;;;;19.98;100.00;101145.47;4987686;28;20039;-66
2023/09/11 03:01:29;;;;;;;13.80;12.45;;;;;;;19.97;100.00;101141.09;4988280;28;20046;-67
2023/09/11 03:03:54;;;;;;;14.18;12.73;;;;;;;19.97;100.00;101135.84;4971089;28;20026;-67
2023/09/11 03:06:20;;;;;;;14.63;13.13;;;;;;;19.95;100.00;101132.34;4988001;28;20026;-69
2023/09/11 03:08:45;;;;;;;14.50;13.30;;;;;;;19.95;100.00;101137.59;4988566;28;20553;-67
2023/09/11 03:11:11;;;;;;;16.13;14.45;;;;;;;19.94;100.00;101130.56;4987316;28;20033;-68
2023/09/11 03:13:36;;;;;;;14.25;12.93;;;;;;;19.91;100.00;101124.44;4988121;28;20497;-68
2023/09/11 03:16:09;;;;;;;16.73;14.45;;;;;;;19.89;100.00;101122.69;4987608;28;20056;-68
2023/09/11 03:18:35;;;;;;;14.75;13.35;;;;;;;19.88;100.00;101121.81;4987986;28;20497;-68
2023/09/11 03:21:02;;;;;;;15.25;13.57;;;;;;;19.86;100.00;101115.69;4988038;28;20061;-68
2023/09/11 03:23:28;;;;;;;15.05;13.70;;;;;;;19.84;100.00;101116.56;4987827;28;20462;-67
2023/09/11 03:25:53;;;;;;;15.77;13.77;;;;;;;19.83;100.00;101118.31;4988031;28;20101;-68
2023/09/11 03:28:18;;;;;;;14.95;13.45;;;;;;;19.80;100.00;101119.22;4991829;28;20395;-68
2023/09/11 03:30:43;;;;;;;14.20;12.88;;;;;;;19.77;100.00;101113.94;4991087;28;20030;-68
2023/09/11 03:33:09;;;;;;;18.55;14.63;;;;;;;19.76;100.00;101114.84;4991388;28;20023;-68
2023/09/11 03:35:34;;;;;;;15.35;13.95;;;;;;;19.75;100.00;101105.19;4991442;28;20022;-69
2023/09/11 03:37:59;;;;;;;15.27;13.57;;;;;;;19.75;100.00;101114.84;4991796;28;20030;-66
2023/09/11 03:40:25;;;;;;;14.95;13.65;;;;;;;19.73;100.00;101113.97;4991575;28;20309;-67
2023/09/11 03:42:50;;;;;;;15.00;13.60;;;;;;;19.71;100.00;101102.56;4991176;28;20018;-68
2023/09/11 03:45:15;;;;;;;16.42;15.02;;;;;;;19.68;100.00;101104.31;4991106;28;20041;-69
2023/09/11 03:47:40;;;;;;;16.80;15.10;;;;;;;19.66;100.00;101098.19;4991853;28;20549;-68
2023/09/11 03:50:07;;;;;;;16.52;14.98;;;;;;;19.64;100.00;101097.34;4992093;28;20045;-68
2023/09/11 03:52:32;;;;;;;16.10;14.48;;;;;;;19.65;100.00;101099.09;4991148;28;20060;-66
2023/09/11 03:54:57;;;;;;;16.67;14.93;;;;;;;19.64;100.00;101099.97;4991586;28;20270;-68
2023/09/11 03:57:23;;;;;;;16.38;14.88;;;;;;;19.63;100.00;101090.31;4991409;28;20097;-67
2023/09/11 03:59:48;;;;;;;19.92;17.02;;;;;;;19.60;100.00;101090.34;4991214;28;20029;-67
2023/09/11 04:02:13;;;;;;;17.85;16.10;;;;;;;19.58;100.00;101080.69;4991706;28;20030;-68
2023/09/11 04:04:38;;;;;;;17.60;15.88;;;;;;;19.56;100.00;101083.31;4992052;28;20038;-65
2023/09/11 04:07:04;;;;;;;17.73;15.88;;;;;;;19.53;100.00;101083.34;4991708;28;20109;-66
2023/09/11 04:09:30;;;;;;;17.48;15.77;;;;;;;19.53;100.00;101078.09;4990664;28;20036;-66
2023/09/11 04:11:56;;;;;;;17.67;16.08;;;;;;;19.52;100.00;101076.31;4991848;28;20097;-68
2023/09/11 04:14:21;;;;;;;18.25;16.38;;;;;;;19.44;100.00;101079.88;4991469;28;20456;-68
2023/09/11 04:16:47;;;;;;;18.27;16.48;;;;;;;19.47;100.00;101072.81;4990585;28;20018;-68
2023/09/11 04:19:12;;;;;;;19.25;17.33;;;;;;;19.44;100.00;101074.59;4990637;28;20501;-64
2023/09/11 04:21:37;;;;;;;17.75;16.15;;;;;;;19.44;100.00;101068.47;4991216;28;20037;-69
2023/09/11 04:24:03;;;;;;;18.35;16.45;;;;;;;19.44;100.00;101061.47;4991119;28;20378;-63
2023/09/11 04:26:29;;;;;;;18.20;16.58;;;;;;;19.45;100.00;101070.19;4990734;28;20030;-68
2023/09/11 04:28:55;;;;;;;18.13;16.23;;;;;;;19.43;100.00;101062.31;4990208;28;20042;-68
2023/09/11 04:31:20;;;;;;;17.95;16.27;;;;;;;19.42;100.00;101060.59;4990382;28;20254;-67
2023/09/11 04:33:45;;;;;;;17.40;15.80;;;;;;;19.41;100.00;101058.81;4990538;28;20030;-66
2023/09/11 04:36:11;;;;;;;15.98;14.38;;;;;;;19.41;100.00;101052.72;4990414;28;20034;-66
2023/09/11 04:38:37;;;;;;;17.70;15.32;;;;;;;19.40;100.00;101061.47;4989503;28;20026;-68
2023/09/11 04:41:02;;;;;;;16.42;14.63;;;;;;;19.37;100.00;101057.09;4990166;28;20033;-68
2023/09/11 04:43:27;;;;;;;16.55;15.20;;;;;;;19.37;100.00;101062.34;4990243;28;20374;-67
2023/09/11 04:45:52;;;;;;;17.00;15.20;;;;;;;19.34;100.00;101061.47;4989926;28;20025;-67
2023/09/11 04:48:18;;;;;;;18.52;15.40;;;;;;;19.31;100.00;101067.59;4990431;28;20548;-68
2023/09/11 04:50:43;;;;;;;15.77;14.38;;;;;;;19.30;100.00;101068.50;4990020;28;20027;-65
2023/09/11 04:53:08;;;;;;;17.60;15.32;;;;;;;19.27;100.00;101065.84;4989394;28;20475;-67
2023/09/11 04:55:34;;;;;;;16.50;14.93;;;;;;;19.25;100.00;101065.00;4988117;28;20109;-68
2023/09/11 04:57:59;;;;;;;16.10;14.68;;;;;;;19.25;100.00;101067.63;4970850;28;20038;-68
2023/09/11 05:00:26;;;;;;;15.52;14.00;;;;;;;19.25;100.00;101075.50;4987303;28;20037;-66
2023/09/11 05:02:51;;;;;;;16.05;14.05;;;;;;;19.24;100.00;101071.09;4989261;28;20823;-68
2023/09/11 05:05:16;;;;;;;15.23;13.73;;;;;;;19.24;100.00;101071.09;4988386;28;20034;-68
2023/09/11 05:07:42;;;;;;;16.58;14.80;;;;;;;19.21;100.00;101072.00;4989689;28;20434;-67
2023/09/11 05:10:08;;;;;;;16.02;14.40;;;;;;;19.22;100.00;101076.38;4989782;28;20030;-69
2023/09/11 05:12:33;;;;;;;16.13;13.80;;;;;;;19.21;100.00;101072.00;4990041;28;20031;-68
2023/09/11 05:14:59;;;;;;;15.35;13.82;;;;;;;19.19;100.00;101069.34;4989160;28;20469;-68
2023/09/11 05:17:24;;;;;;;16.35;14.60;;;;;;;19.18;100.00;101077.22;4989479;28;20065;-67
2023/09/11 05:19:49;;;;;;;19.10;14.00;;;;;;;19.16;100.00;101084.22;4989714;28;20026;-65
2023/09/11 05:22:15;;;;;;;14.75;13.45;;;;;;;19.14;100.00;101080.75;4989823;28;20045;-68
2023/09/11 05:24:40;;;;;;;17.63;14.88;;;;;;;19.12;100.00;101067.63;4989774;28;20030;-68
2023/09/11 05:27:05;;;;;;;16.05;14.45;;;;;;;19.13;100.00;101071.09;4989736;28;20065;-64
2023/09/11 05:29:30;;;;;;;14.95;13.43;;;;;;;19.12;100.00;101072.88;4989270;28;20030;-65
2023/09/11 05:31:56;;;;;;;16.15;14.50;;;;;;;19.12;100.00;101072.88;4972075;28;20021;-67
2023/09/11 05:34:21;;;;;;;18.88;13.55;;;;;;;19.12;100.00;101072.00;4989604;28;20053;-66
2023/09/11 05:36:46;;;;;;;14.93;13.63;;;;;;;19.11;100.00;101075.44;4989345;28;20030;-68
2023/09/11 05:39:12;;;;;;;14.25;12.88;;;;;;;19.10;100.00;101077.22;4989233;28;20126;-68
2023/09/11 05:41:37;;;;;;;13.50;12.10;;;;;;;19.11;100.00;101078.97;4983014;28;20525;-68
2023/09/11 05:44:03;;;;;;;13.05;11.75;;;;;;;19.12;100.00;101086.00;4978053;28;20183;-65
2023/09/11 05:46:28;;;;;;;12.27;10.55;;;;;;;19.15;100.00;101083.38;4981119;28;20565;-66
2023/09/11 05:48:54;;;;;;;13.50;10.10;;;;;;;19.21;100.00;101090.38;4979197;28;20071;-66
2023/09/11 05:51:19;;;;;;;10.43;9.43;;;;;;;19.27;100.00;101092.09;4986200;28;20026;-68
2023/09/11 05:53:44;;;;;;;11.98;9.75;;;;;;;19.35;100.00;101095.63;4984766;28;20038;-67
2023/09/11 05:56:10;;;;;;;13.02;9.55;;;;;;;19.42;100.00;101092.13;4985638;28;20031;-67
2023/09/11 05:58:35;;;;;;;11.88;9.93;;;;;;;19.51;100.00;101095.59;4977233;28;20525;-68
2023/09/11 06:01:00;;;;;;;14.02;10.70;;;;;;;19.58;100.00;101102.59;4986686;28;20038;-68
2023/09/11 06:03:26;;;;;;;15.48;8.95;;;;;;;19.66;100.00;101105.22;4985410;28;20040;-69
2023/09/11 06:05:51;;;;;;;11.70;9.52;;;;;;;19.73;100.00;101106.09;4977292;28;20553;-66
2023/09/11 06:08:16;;;;;;;11.23;9.07;;;;;;;19.78;100.00;101107.84;4982800;28;20153;-67
2023/09/11 06:10:42;;;;;;;13.95;9.52;;;;;;;19.84;100.00;101112.16;4979194;28;20034;-67
2023/09/11 06:13:07;;;;;;;13.00;9.38;;;;;;;19.88;100.00;101111.28;4985765;28;20033;-68
2023/09/11 06:15:32;;;;;;;9.63;8.63;;;;;;;19.96;100.00;101107.78;4982208;28;20022;-69
2023/09/11 06:17:57;;;;;;;9.82;8.75;;;;;;;19.99;100.00;101113.00;4983241;28;20037;-69
2023/09/11 06:20:23;;;;;;;10.77;9.63;;;;;;;20.02;100.00;101113.88;4984957;28;20529;-68
2023/09/11 06:22:48;;;;;;;13.00;8.80;;;;;;;20.04;100.00;101121.75;4986696;28;20542;-69
2023/09/11 06:25:13;;;;;;;12.30;8.52;;;;;;;20.08;100.00;101113.03;4986858;28;20026;-68
2023/09/11 06:27:39;;;;;;;9.80;8.68;;;;;;;20.10;100.00;101116.53;4985817;28;20402;-69
2023/09/11 06:30:05;;;;;;;13.20;9.13;;;;;;;20.13;100.00;101116.50;4987473;28;20018;-69
2023/09/11 06:32:32;;;;;;;12.10;8.70;;;;;;;20.19;100.00;101120.00;4987635;28;20030;-68
2023/09/11 06:34:57;;;;;;;12.52;9.20;;;;;;;20.24;100.00;101123.47;4989519;28;20014;-69
2023/09/11 06:37:23;;;;;;;10.35;8.10;;;;;;;20.27;100.00;101119.09;4988587;28;20387;-67
2023/09/11 06:39:50;;;;;;;13.68;9.43;;;;;;;20.33;100.00;101117.34;4986911;28;20022;-69
2023/09/11 06:42:23;;;;;;;12.75;9.57;;;;;;;20.42;100.00;101116.41;4987839;28;20026;-69
2023/09/11 06:44:50;;;;;;;14.35;8.02;;;;;;;20.51;100.00;101113.72;4986891;28;20401;-69
2023/09/11 06:47:16;;;;;;;9.02;7.95;;;;;;;20.65;100.00;101118.94;4987379;28;20022;-69
2023/09/11 06:49:41;;;;;;;10.43;8.52;;;;;;;20.91;100.00;101120.50;4986673;28;20022;-68
2023/09/11 06:52:06;;;;;;;13.27;8.27;;;;;;;21.31;100.00;101119.38;4985224;28;20031;-65
2023/09/11 06:54:32;;;;;;;10.55;7.97;;;;;;;21.71;100.00;101122.50;4987606;28;20026;-67
2023/09/11 06:56:57;;;;;;;9.60;7.65;;;;;;;22.05;100.00;101129.22;4984753;28;20030;-68
2023/09/11 06:59:22;;;;;;;9.13;7.07;;;;;;;22.24;100.00;101129.84;4979023;28;20033;-68
2023/09/11 07:01:47;;;;;;;8.43;6.88;;;;;;;22.35;100.00;101123.56;4988089;28;20311;-69
2023/09/11 07:04:13;;;;;;;9.77;7.38;;;;;;;22.35;100.00;101126.19;4978978;28;20058;-66
2023/09/11 07:06:38;;;;;;;11.85;7.82;;;;;;;22.35;100.00;101129.72;4985588;28;20029;-67
2023/09/11 07:09:05;;;;;;;11.65;7.85;;;;;;;22.40;100.00;101127.88;4989098;28;20018;-68
2023/09/11 07:11:31;;;;;;;17.15;7.45;;;;;;;22.42;100.00;101125.22;4988060;28;20022;-69
2023/09/11 07:13:56;;;;;;;9.93;8.23;;;;;;;22.47;100.00;101117.25;4989037;28;20028;-68
2023/09/11 07:16:22;;;;;;;11.77;7.32;;;;;;;22.60;100.00;101116.19;4988326;28;20158;-68
2023/09/11 07:18:47;;;;;;;11.25;8.18;;;;;;;22.69;100.00;101114.34;4988378;28;20038;-68
2023/09/11 07:21:13;;;;;;;10.45;7.57;;;;;;;22.97;100.00;101117.44;4987699;28;20038;-68
2023/09/11 07:23:38;;;;;;;9.27;7.30;;;;;;;23.36;100.00;101108.88;4988541;28;20073;-68
2023/09/11 07:26:03;;;;;;;12.18;8.68;;;;;;;23.75;100.00;101110.84;4988374;28;20050;-69
2023/09/11 07:28:29;;;;;;;12.77;8.02;;;;;;;23.97;100.00;101115.72;4988194;28;20061;-69
2023/09/11 07:30:55;;;;;;;13.10;7.18;;;;;;;24.41;100.00;101114.81;4987887;28;20030;-68
2023/09/11 07:33:20;;;;;;;12.95;7.35;;;;;;;24.85;100.00;101124.44;4988765;28;20085;-69
2023/09/11 07:35:46;;;;;;;8.57;6.88;;;;;;;25.22;100.00;101121.84;4988136;28;20541;-69
2023/09/11 07:38:11;;;;;;;12.90;7.93;;;;;;;25.42;99.90;101127.50;4987816;28;20501;-69
2023/09/11 07:40:37;;;;;;;9.57;7.60;;;;;;;25.71;98.16;101132.09;4988545;28;20078;-68
2023/09/11 07:43:03;;;;;;;8.85;7.80;;;;;;;26.05;94.64;101136.44;4988335;28;20034;-69
2023/09/11 07:45:28;;;;;;;12.10;7.40;;;;;;;26.36;92.84;101132.06;4988411;28;20341;-69
2023/09/11 07:47:54;;;;;;;14.48;8.25;;;;;;;26.58;92.02;101131.41;4988711;28;20390;-69
2023/09/11 07:50:19;;;;;;;11.35;9.13;;;;;;;26.59;87.91;101136.69;4988218;28;20030;-69
2023/09/11 07:52:44;;;;;;;12.32;9.32;;;;;;;26.73;86.96;101140.69;4983789;28;20033;-69
2023/09/11 07:55:10;;;;;;;14.57;8.18;;;;;;;26.97;88.37;101139.03;4986876;28;20031;-69
2023/09/11 07:57:38;;;;;;;12.02;8.43;;;;;;;27.30;86.10;101145.97;4978375;28;20525;-69
2023/09/11 08:00:04;;;;;;;13.40;8.85;;;;;;;27.53;84.13;101141.66;4976821;28;20458;-69
2023/09/11 08:02:31;;;;;;;10.77;8.35;;;;;;;27.48;83.47;101151.56;4978699;28;20027;-69
2023/09/11 08:04:56;;;;;;;13.80;8.38;;;;;;;27.90;82.10;101154.59;4979131;28;20479;-69
2023/09/11 08:07:21;;;;;;;12.30;8.82;;;;;;;28.14;79.59;101157.25;4979683;28;20117;-69
2023/09/11 08:09:47;;;;;;;13.10;8.85;;;;;;;28.27;78.78;101155.88;4980937;28;21262;-69
2023/09/11 08:12:12;;;;;;;10.68;8.70;;;;;;;28.48;78.44;101165.78;4977649;28;20026;-70
2023/09/11 08:14:37;;;;;;;13.27;9.57;;;;;;;28.58;77.27;101168.97;4990105;28;20127;-69
2023/09/11 08:17:03;;;;;;;13.02;9.52;;;;;;;28.85;75.76;101163.47;4989961;28;20034;-69
2023/09/11 08:19:28;;;;;;;14.18;10.60;;;;;;;28.99;74.52;101166.47;4988778;28;20034;-66
2023/09/11 08:21:54;;;;;;;11.35;9.85;;;;;;;29.07;75.53;101170.63;4983552;28;20029;-69
2023/09/11 08:24:20;;;;;;;17.25;11.00;;;;;;;29.13;74.00;101170.38;4986641;28;20434;-69
2023/09/11 08:26:45;;;;;;;11.55;10.45;;;;;;;28.92;77.56;101164.09;4985281;28;20467;-68
2023/09/11 08:29:12;;;;;;;11.73;10.63;;;;;;;28.83;77.45;101170.66;4985708;28;20157;-67
2023/09/11 08:31:37;;;;;;;14.43;13.02;;;;;;;28.89;76.00;101165.94;4988529;28;20030;-70
2023/09/11 08:34:03;;;;;;;16.63;12.25;;;;;;;29.02;76.13;101161.97;4978899;28;20034;-70
2023/09/11 08:36:28;;;;;;;14.82;13.32;;;;;;;29.08;75.09;101161.69;4983314;28;20044;-69
2023/09/11 08:38:53;;;;;;;17.70;12.60;;;;;;;29.27;74.28;101163.59;4986263;28;20430;-70
2023/09/11 08:41:22;;;;;;;19.48;14.35;;;;;;;29.17;74.97;101163.09;4988703;28;20027;-71
2023/09/11 08:43:47;;;;;;;17.65;13.52;;;;;;;29.15;78.23;101165.84;4988640;28;20509;-70
2023/09/11 08:46:17;;;;;;;17.92;13.05;;;;;;;29.21;74.37;101160.25;4988943;28;20277;-70
2023/09/11 08:48:45;;;;;;;15.30;12.45;;;;;;;29.18;75.39;101160.38;4988688;28;20146;-70
2023/09/11 08:51:24;;;;;;;14.88;12.75;;;;;;;29.14;76.87;101164.13;4988681;28;20111;-69
2023/09/11 08:53:52;;;;;;;15.25;13.60;;;;;;;29.00;75.60;101168.22;4990403;28;20030;-69
2023/09/11 08:56:17;;;;;;;16.67;13.32;;;;;;;28.97;77.25;101165.63;4990056;28;20028;-69
2023/09/11 08:58:43;;;;;;;13.55;12.15;;;;;;;29.04;76.64;101174.28;4977004;28;20023;-69
2023/09/11 09:01:10;;;;;;;15.15;13.63;;;;;;;29.10;74.57;101176.72;4989914;28;20030;-70
2023/09/11 09:03:37;;;;;;;15.32;13.63;;;;;;;28.92;77.55;101164.97;4990352;28;20037;-69
2023/09/11 09:06:04;;;;;;;14.25;12.77;;;;;;;28.97;78.89;101172.75;4990478;28;20034;-69
2023/09/11 09:08:30;;;;;;;15.35;11.70;;;;;;;29.03;76.04;101177.03;4990587;28;20456;-69
2023/09/11 09:10:56;;;;;;;16.83;12.02;;;;;;;29.05;76.34;101175.16;4989595;28;20393;-69
2023/09/11 09:13:21;;;;;;;16.85;14.27;;;;;;;29.08;76.77;101161.69;4977019;28;20030;-69
2023/09/11 09:15:47;;;;;;;15.45;12.90;;;;;;;29.08;76.70;101162.56;4989287;28;20030;-68
2023/09/11 09:18:12;;;;;;;18.95;13.25;;;;;;;29.10;77.66;101158.03;4982293;28;20026;-70
2023/09/11 09:20:38;;;;;;;14.40;11.60;;;;;;;29.14;76.23;101156.13;4988819;28;20505;-70
2023/09/11 09:23:04;;;;;;;12.63;11.35;;;;;;;29.16;76.18;101170.22;4987053;28;20088;-68
2023/09/11 09:25:30;;;;;;;14.23;11.55;;;;;;;29.08;78.50;101173.25;4988273;28;20026;-68
2023/09/11 09:27:57;;;;;;;13.38;11.80;;;;;;;29.06;76.31;101169.75;4989191;28;20049;-69
2023/09/11 09:30:28;;;;;;;12.45;11.15;;;;;;;28.97;74.52;101170.09;4988768;28;20038;-68
2023/09/11 09:32:54;;;;;;;13.07;10.70;;;;;;;28.84;74.07;101173.25;4989797;28;20097;-67
2023/09/11 09:35:22;;;;;;;13.70;11.32;;;;;;;28.94;74.16;101167.56;4989492;28;20022;-68
2023/09/11 09:37:53;;;;;;;12.30;11.02;;;;;;;28.94;75.19;101180.91;4989573;28;20029;-68
2023/09/11 09:40:31;;;;;;;12.43;11.25;;;;;;;28.82;77.15;101172.44;4989070;28;20500;-69
2023/09/11 09:42:59;;;;;;;13.63;11.65;;;;;;;28.81;75.20;101167.19;4975589;28;20490;-69
2023/09/11 09:45:35;;;;;;;12.35;11.07;;;;;;;28.68;77.32;101170.34;4982457;28;20034;-66
2023/09/11 09:48:20;;;;;;;13.75;11.45;;;;;;;28.65;78.31;101173.13;4985999;28;20029;-68
2023/09/11 09:50:59;;;;;;;13.50;11.10;;;;;;;28.66;74.73;101169.53;4987873;28;20420;-69
2023/09/11 09:53:41;;;;;;;17.92;11.30;;;;;;;28.63;76.78;101173.19;4985179;28;20386;-68
2023/09/11 09:56:08;;;;;;;12.63;10.27;;;;;;;28.68;78.61;101172.13;4982077;28;20022;-69
2023/09/11 09:58:36;;;;;;;11.57;9.70;;;;;;;28.67;77.18;101160.63;4983708;28;20022;-68
2023/09/11 10:01:06;;;;;;;14.45;10.57;;;;;;;28.73;78.38;101160.38;4988374;28;20164;-69
2023/09/11 10:03:40;;;;;;;10.50;9.40;;;;;;;28.76;79.03;101162.94;4986451;28;20438;-68
2023/09/11 10:06:07;;;;;;;14.65;12.43;;;;;;;28.62;75.86;101162.59;4979542;28;20030;-67
2023/09/11 10:08:32;;;;;;;12.32;11.07;;;;;;;28.60;77.08;101160.00;4986937;28;20026;-69
2023/09/11 10:10:58;;;;;;;12.30;10.00;;;;;;;28.65;78.48;101167.81;4980795;28;20163;-69
2023/09/11 10:13:27;;;;;;;13.60;8.63;;;;;;;28.74;80.00;101164.78;4981642;28;20030;-66
2023/09/11 10:15:56;;;;;;;10.07;9.07;;;;;;;28.86;77.05;101165.19;4983676;28;20029;-67
2023/09/11 10:18:22;;;;;;;9.13;7.80;;;;;;;28.93;77.56;101161.34;4983791;28;20469;-66
2023/09/11 10:20:49;;;;;;;10.02;7.75;;;;;;;28.98;72.88;101169.19;4984568;28;20033;-67
2023/09/11 10:23:14;;;;;;;12.90;8.55;;;;;;;29.03;73.26;101167.22;4984647;28;20031;-67
2023/09/11 10:25:44;;;;;;;12.30;7.90;;;;;;;29.05;74.07;101165.38;4981450;28;20030;-65
2023/09/11 10:28:39;;;;;;;8.98;7.78;;;;;;;29.10;74.41;101154.50;4988813;28;20375;-65
2023/09/11 10:31:20;;;;;;;11.07;8.70;;;;;;;29.10;74.04;101165.16;4987368;28;20034;-65
2023/09/11 10:33:47;;;;;;;11.15;8.38;;;;;;;29.14;75.04;101158.78;4979234;28;20041;-66
2023/09/11 10:36:14;;;;;;;12.25;8.82;;;;;;;29.07;69.49;101157.31;4967456;28;20052;-67
2023/09/11 10:38:43;;;;;;;10.45;7.65;;;;;;;29.11;74.15;101142.88;4988037;28;20389;-67
2023/09/11 10:41:09;;;;;;;11.93;8.38;;;;;;;29.10;71.14;101151.84;4987272;28;20498;-67
2023/09/11 10:43:34;;;;;;;9.73;7.22;;;;;;;29.13;70.68;101151.69;4986993;28;20064;-67
2023/09/11 10:46:20;;;;;;;8.70;7.80;;;;;;;29.17;73.59;101153.31;4981446;28;20019;-67
2023/09/11 10:48:45;;;;;;;11.98;7.97;;;;;;;29.21;71.51;101146.94;4957241;28;20413;-66
2023/09/11 10:51:13;;;;;;;6.50;5.82;;;;;;;29.27;72.03;101151.09;4979926;28;20038;-65
2023/09/11 10:53:39;;;;;;;11.35;7.93;;;;;;;29.32;69.86;101148.25;4980267;28;20081;-67
2023/09/11 10:56:04;;;;;;;8.98;6.95;;;;;;;29.34;70.19;101146.41;4978316;28;20038;-66
2023/09/11 10:58:30;;;;;;;10.20;7.15;;;;;;;29.29;67.83;101145.75;4982401;28;20073;-67
2023/09/11 11:00:57;;;;;;;8.95;6.35;;;;;;;29.35;72.00;101146.34;4985413;28;20033;-67
2023/09/11 11:03:27;;;;;;;6.70;5.90;;;;;;;29.34;69.87;101146.41;4982135;28;20031;-66
2023/09/11 11:05:53;;;;;;;10.73;6.88;;;;;;;29.39;67.64;101141.72;4976524;28;20038;-67